Allensville, Kentucky
Current Conditions -  °F | °C
As of 2:55 PM on Thursday 27 Nov 2014 (Local Time) from KM91 Reporting Station
Overcast Overcast  
Wind Chill: 24°   Ceiling: 2200
Heat Index: 32°   Visibility: 10mi
Dew Point: 25°   Wind: 9mph
Humidity: 75%   Direction: 330°NNW
Pressure: 30.43"   Gusts: NA
Location:  36.72°N, 87.07°W
Report Text: KM91 272055Z AUTO 33008KT 300V020 10SM OVC022 00/M04 A3043 RMK
Loading
Personal Weather Stations






























Interactive Weather Map New forecast layout! Learn more

10-Day Weather Forecast

Advertisements
Track Severe Weather on mobile